Ust' Kalmanka, Russia
Current Conditions -  °F | °C
As of 11:00 PM on Thursday 30 Oct 2014 (Local Time) from UNBB Reporting Station
Snow Showers Snow Showers  
Wind Chill: 21°   Ceiling: 400
Heat Index: 32°   Visibility: 5mi
Dew Point: 30°   Wind: 16mph
Humidity: 93%   Direction: 230°SW
Pressure: 30.24"   Gusts: NA
Location:  52.12°N, 83.32°E
Report Text: UNBB 301600Z 23007MPS 8000 -SHSN BKN004CB 00/M01 Q1024 NOSIGRMK QBB140 QFE745/0994 24590531
Loading
Personal Weather Stations






























Interactive Weather Map New forecast layout! Learn more

10-Day Weather Forecast

Advertisements
Track Severe Weather on mobile